Time;durP1;ratioP1;P1;durP2;ratioP2;P2;SDS_P1;SDS_P2;PMS_P1;PMS_P2;Temp;Humidity;BMP_temperature;BMP_pressure;BME280_temperature;BME280_humidity;BME280_pressure;Samples;Min_cycle;Max_cycle;Signal;HPM_P1;HPM_P2
2023/03/26 12:43:38;;;;;;;;;;;;;;;;;;;;;
2023/03/26 13:14:49;;;;;;;;;;;;;;;;;;;;;
2023/03/26 13:37:11;;;;;;;2.45;1.92;;;10.50;99.90;;;;;;6187175;23;20214;-82
2023/03/26 13:40:00;;;;;;;3.00;2.08;;;10.90;99.90;;;;;;6189537;23;20661;-82
2023/03/26 13:42:49;;;;;;;5.50;2.60;;;11.10;99.90;;;;;;6163733;23;20195;-82
2023/03/26 13:45:27;;;;;;;4.72;2.25;;;11.10;99.90;;;;;;6164245;23;20147;-81
2023/03/26 13:47:55;;;;;;;2.88;2.08;;;11.10;99.90;;;;;;6158499;23;20180;-81
2023/03/26 13:50:42;;;;;;;4.60;2.05;;;11.20;99.90;;;;;;6133217;23;20250;-81
2023/03/26 13:53:19;;;;;;;5.15;2.25;;;11.20;99.90;;;;;;6158051;23;20231;-81
2023/03/26 13:55:49;;;;;;;3.47;1.80;;;11.20;99.90;;;;;;6132757;23;20489;-82
2023/03/26 13:58:33;;;;;;;4.97;2.08;;;11.10;99.90;;;;;;6133554;23;20203;-82
2023/03/26 14:01:16;;;;;;;2.33;1.92;;;10.90;99.90;;;;;;6134789;23;20223;-82
2023/03/26 14:04:02;;;;;;;4.53;2.05;;;10.80;99.90;;;;;;6160172;23;20140;-81
2023/03/26 14:06:56;;;;;;;3.38;1.80;;;10.50;99.90;;;;;;6133372;23;20240;-82
2023/03/26 14:09:33;;;;;;;2.10;1.63;;;10.40;99.90;;;;;;6133505;23;20163;-82
2023/03/26 14:12:31;;;;;;;4.63;1.80;;;10.20;99.90;;;;;;6134402;23;20172;-80
2023/03/26 14:15:03;;;;;;;3.63;2.30;;;10.10;99.90;;;;;;6115371;23;20155;-82
2023/03/26 14:17:29;;;;;;;3.72;2.50;;;10.00;99.90;;;;;;6160207;23;20246;-81
2023/03/26 14:20:09;;;;;;;5.20;2.38;;;10.00;99.90;;;;;;6159488;23;20183;-81
2023/03/26 14:23:14;;;;;;;2.95;2.17;;;10.00;99.90;;;;;;6157037;23;20144;-81
2023/03/26 14:26:09;;;;;;;3.92;2.10;;;10.00;99.90;;;;;;6128996;23;20480;-81
2023/03/26 14:28:56;;;;;;;4.70;2.20;;;10.00;99.90;;;;;;6119246;23;20227;-81
2023/03/26 14:31:45;;;;;;;4.70;2.10;;;10.00;99.90;;;;;;6131251;23;20186;-81
2023/03/26 14:34:22;;;;;;;3.08;1.98;;;9.90;99.90;;;;;;6130959;23;20167;-81
2023/03/26 14:37:09;;;;;;;5.57;2.40;;;9.90;99.90;;;;;;6130019;23;20179;-81
2023/03/26 14:39:59;;;;;;;2.85;1.95;;;9.90;99.90;;;;;;6130779;23;20171;-81
2023/03/26 14:42:50;;;;;;;4.88;2.40;;;10.00;99.90;;;;;;6154837;23;20175;-81
2023/03/26 14:45:33;;;;;;;4.13;2.30;;;10.10;99.90;;;;;;6157415;23;20135;-81
2023/03/26 14:48:30;;;;;;;4.18;2.20;;;10.10;99.90;;;;;;6130875;23;20184;-81
2023/03/26 14:51:13;;;;;;;3.88;2.05;;;10.40;99.90;;;;;;6157046;23;20168;-82
2023/03/26 14:53:49;;;;;;;3.22;1.50;;;10.70;99.90;;;;;;6130969;23;20170;-81
2023/03/26 14:56:33;;;;;;;5.22;1.50;;;10.60;99.90;;;;;;6131545;23;20148;-81
2023/03/26 14:59:38;;;;;;;3.03;1.67;;;10.60;99.90;;;;;;6131629;23;20150;-82
2023/03/26 15:02:50;;;;;;;2.72;1.55;;;10.40;99.90;;;;;;6130765;23;20154;-80
2023/03/26 15:05:40;;;;;;;1.48;0.95;;;10.20;99.90;;;;;;6130686;23;20156;-81
2023/03/26 15:08:30;;;;;;;1.33;0.90;;;10.00;99.90;;;;;;6132091;23;20178;-81
2023/03/26 15:11:47;;;;;;;1.25;1.00;;;10.20;99.90;;;;;;6158914;23;20172;-82
2023/03/26 15:14:49;;;;;;;1.33;0.90;;;10.50;99.90;;;;;;6159737;23;20140;-81
2023/03/26 15:18:05;;;;;;;0.85;0.82;;;10.50;99.90;;;;;;6133184;23;20206;-81
2023/03/26 15:21:02;;;;;;;0.65;0.65;;;10.60;99.90;;;;;;6132666;23;20151;-81
2023/03/26 15:27:27;;;;;;;0.80;0.80;;;10.70;99.90;;;;;;6159250;23;20234;-81
2023/03/26 15:30:57;;;;;;;0.55;0.55;;;10.80;99.90;;;;;;6132964;23;20634;-81
2023/03/26 15:33:38;;;;;;;0.70;0.70;;;10.80;99.90;;;;;;6044463;23;20199;-81
2023/03/26 15:36:43;;;;;;;1.45;0.60;;;11.00;99.90;;;;;;6044046;23;20245;-82
2023/03/26 15:39:37;;;;;;;1.17;1.00;;;10.90;99.90;;;;;;6117217;23;20182;-81
2023/03/26 15:42:20;;;;;;;0.80;0.80;;;10.90;99.90;;;;;;6133062;23;20152;-81
2023/03/26 15:45:28;;;;;;;2.22;1.25;;;10.90;99.90;;;;;;6132378;23;20195;-81
2023/03/26 15:48:29;;;;;;;0.90;0.90;;;11.00;99.90;;;;;;6157476;23;20262;-81
2023/03/26 15:51:40;;;;;;;2.40;1.95;;;11.10;99.90;;;;;;6156731;23;20182;-81
2023/03/26 15:54:21;;;;;;;1.40;1.30;;;11.00;99.90;;;;;;6158271;23;20140;-81
2023/03/26 15:57:15;;;;;;;2.25;2.05;;;11.00;99.90;;;;;;6131809;23;20261;-81
2023/03/26 16:00:18;;;;;;;1.92;1.73;;;10.70;99.90;;;;;;6158743;23;20152;-81
2023/03/26 16:03:16;;;;;;;4.22;3.25;;;10.60;99.90;;;;;;6132519;23;20152;-80
2023/03/26 16:06:12;;;;;;;7.18;4.45;;;10.60;99.90;;;;;;6110254;23;20160;-81
2023/03/26 16:09:18;;;;;;;;;;;;;;;;;;;;;
2023/03/26 16:12:02;;;;;;;7.57;4.53;;;10.20;99.90;;;;;;6159736;23;20302;-81
2023/03/26 16:14:40;;;;;;;5.43;3.22;;;10.10;99.90;;;;;;6132664;23;20154;-81
2023/03/26 16:17:22;;;;;;;4.78;3.40;;;9.90;99.90;;;;;;6132640;23;20179;-81
2023/03/26 16:20:07;;;;;;;3.80;2.95;;;9.80;99.90;;;;;;6132341;23;20152;-80
2023/03/26 16:23:00;;;;;;;7.78;5.10;;;9.70;99.90;;;;;;6131731;23;20152;-81
2023/03/26 16:26:04;;;;;;;5.25;3.60;;;9.70;99.90;;;;;;6129708;23;20155;-81
2023/03/26 16:28:45;;;;;;;3.90;2.92;;;9.70;99.90;;;;;;6131488;23;20156;-81
2023/03/26 16:31:14;;;;;;;6.75;3.13;;;9.60;99.90;;;;;;6131850;23;20203;-81
2023/03/26 16:34:24;;;;;;;;;;;;;;;;;;;;;
2023/03/26 16:36:53;;;;;;;3.38;3.03;;;9.60;99.90;;;;;;6161546;23;20214;-81
2023/03/26 16:39:22;;;;;;;1.35;1.25;;;9.80;99.90;;;;;;6131559;23;20167;-81
2023/03/26 16:41:59;;;;;;;1.60;1.50;;;9.80;99.90;;;;;;6136649;23;20163;-81
2023/03/26 16:44:39;;;;;;;2.28;1.58;;;9.80;99.90;;;;;;6155685;23;20254;-81
2023/03/26 16:47:17;;;;;;;0.88;0.88;;;9.80;99.90;;;;;;6131966;23;20211;-81
2023/03/26 16:49:49;;;;;;;0.80;0.80;;;9.80;99.90;;;;;;6139425;23;20154;-81
2023/03/26 17:08:05;;;;;;;7.65;6.60;;;9.40;99.90;;;;;;6193478;23;20206;-80
2023/03/26 17:10:46;;;;;;;6.20;5.13;;;9.30;99.90;;;;;;6191771;23;20489;-80
2023/03/26 17:13:39;;;;;;;39.28;34.38;;;9.40;99.90;;;;;;6165386;23;20166;-80
2023/03/26 17:16:21;;;;;;;46.30;41.47;;;9.30;99.90;;;;;;6164146;23;20226;-81
2023/03/26 17:19:15;;;;;;;42.00;37.90;;;9.20;99.90;;;;;;6163971;23;20147;-80
2023/03/26 17:21:51;;;;;;;27.77;18.17;;;9.10;99.90;;;;;;6162155;23;20155;-81
2023/03/26 17:24:42;;;;;;;26.10;15.48;;;9.00;99.90;;;;;;6164955;23;20154;-82
2023/03/26 17:27:20;;;;;;;13.20;7.95;;;9.10;99.90;;;;;;6164611;23;20183;-81
2023/03/26 17:30:20;;;;;;;6.57;4.90;;;9.20;99.90;;;;;;6163791;23;20151;-81
2023/03/26 17:33:01;;;;;;;6.50;5.35;;;9.10;99.90;;;;;;6162941;23;20186;-81
2023/03/26 17:35:46;;;;;;;3.95;3.20;;;9.20;99.90;;;;;;6161377;23;20159;-82
2023/03/26 17:38:41;;;;;;;1.60;1.50;;;9.20;99.90;;;;;;6189560;23;20167;-81
2023/03/26 17:41:10;;;;;;;4.65;1.33;;;9.20;99.90;;;;;;6163872;23;20166;-81
2023/03/26 17:43:50;;;;;;;1.25;0.90;;;8.90;99.90;;;;;;6163111;23;20217;-81
2023/03/26 17:46:45;;;;;;;1.13;0.80;;;8.20;99.90;;;;;;6164385;23;20185;-81
2023/03/26 17:49:10;;;;;;;1.70;0.70;;;7.70;99.90;;;;;;6163650;23;20599;-81
2023/03/26 17:51:43;;;;;;;2.53;1.67;;;7.40;99.90;;;;;;6163159;23;20225;-81
2023/03/26 17:54:24;;;;;;;1.10;1.10;;;7.30;99.90;;;;;;6163367;23;20154;-81
2023/03/26 17:56:52;;;;;;;0.70;0.70;;;7.30;99.90;;;;;;6189804;23;20234;-81
2023/03/26 17:59:24;;;;;;;1.52;1.42;;;7.20;99.90;;;;;;6165448;23;20174;-80
2023/03/26 18:01:59;;;;;;;1.88;1.77;;;7.30;99.90;;;;;;6164179;23;20151;-81
2023/03/26 18:04:37;;;;;;;1.38;1.27;;;7.30;99.90;;;;;;6189330;23;20143;-80
2023/03/26 18:07:27;;;;;;;1.50;1.50;;;7.30;99.90;;;;;;6163511;23;20205;-80
2023/03/26 18:10:12;;;;;;;1.58;1.58;;;7.30;99.90;;;;;;6163961;23;20151;-81
2023/03/26 18:12:57;;;;;;;1.60;1.50;;;7.50;99.90;;;;;;6163906;23;20242;-81
2023/03/26 18:15:29;;;;;;;1.65;1.42;;;7.50;99.90;;;;;;6162783;23;20186;-81
2023/03/26 18:18:28;;;;;;;2.15;1.20;;;7.50;99.90;;;;;;6162884;23;20203;-80
2023/03/26 18:20:57;;;;;;;2.28;2.17;;;7.40;99.90;;;;;;6163867;23;20158;-80
2023/03/26 18:23:28;;;;;;;1.13;1.13;;;7.40;99.90;;;;;;6190092;23;20493;-80
2023/03/26 18:26:07;;;;;;;1.42;1.35;;;7.40;99.90;;;;;;6163551;23;20147;-80
2023/03/26 18:28:41;;;;;;;0.90;0.90;;;7.40;99.90;;;;;;6163680;23;20153;-80
2023/03/26 18:31:19;;;;;;;1.80;1.70;;;7.40;99.90;;;;;;6162847;23;20712;-80
2023/03/26 18:33:48;;;;;;;4.38;3.95;;;7.30;99.90;;;;;;6189345;23;20147;-80
2023/03/26 18:36:15;;;;;;;2.20;2.10;;;7.30;99.90;;;;;;6189628;23;20595;-81
2023/03/26 18:38:42;;;;;;;3.35;1.80;;;7.30;99.90;;;;;;6162169;23;20158;-80
2023/03/26 18:41:30;;;;;;;2.05;1.63;;;7.30;99.90;;;;;;6162420;23;20196;-80
2023/03/26 18:44:00;;;;;;;1.65;1.55;;;7.40;99.90;;;;;;6162286;23;20158;-80
2023/03/26 18:46:26;;;;;;;1.48;1.27;;;7.40;99.90;;;;;;6161286;23;20182;-80
2023/03/26 18:48:54;;;;;;;2.15;0.90;;;7.40;99.90;;;;;;6162208;23;20221;-80
2023/03/26 18:51:21;;;;;;;13.80;9.52;;;7.40;99.90;;;;;;6161610;23;20626;-80
2023/03/26 18:53:59;;;;;;;4.30;3.42;;;7.30;99.90;;;;;;6161762;23;20155;-81
2023/03/26 18:56:32;;;;;;;1.10;1.10;;;7.50;99.90;;;;;;6161256;23;20630;-80
2023/03/26 18:58:59;;;;;;;0.80;0.80;;;7.50;99.90;;;;;;6161470;23;20162;-80
2023/03/26 19:01:35;;;;;;;0.50;0.43;;;7.60;99.90;;;;;;6186507;23;20163;-80
2023/03/26 19:04:04;;;;;;;1.98;1.88;;;7.60;99.90;;;;;;6187537;23;20218;-80
2023/03/26 19:06:37;;;;;;;2.47;2.10;;;7.60;99.90;;;;;;6160968;23;20255;-81
2023/03/26 19:09:05;;;;;;;1.95;1.85;;;7.60;99.90;;;;;;6187362;23;20520;-80
2023/03/26 19:11:32;;;;;;;1.60;1.20;;;7.60;99.90;;;;;;6161756;23;20182;-81
2023/03/26 19:14:12;;;;;;;0.77;0.77;;;7.60;99.90;;;;;;6161057;23;20163;-80
2023/03/26 19:16:42;;;;;;;3.22;2.47;;;7.60;99.90;;;;;;6161640;23;20237;-81
2023/03/26 19:19:10;;;;;;;7.10;5.88;;;7.50;99.90;;;;;;6161023;23;20571;-80
2023/03/26 19:21:36;;;;;;;10.85;7.50;;;7.50;99.90;;;;;;6161331;23;20166;-80
2023/03/26 19:24:03;;;;;;;3.92;3.25;;;7.50;99.90;;;;;;6161580;23;20159;-80
2023/03/26 19:26:29;;;;;;;2.00;1.73;;;7.50;99.90;;;;;;6160896;23;20181;-80
2023/03/26 19:28:56;;;;;;;1.55;1.45;;;7.40;99.90;;;;;;6187574;23;20226;-80
2023/03/26 19:31:37;;;;;;;1.88;1.77;;;7.40;99.90;;;;;;6161768;23;20253;-80
2023/03/26 19:34:14;;;;;;;1.35;1.30;;;7.40;99.90;;;;;;6161402;23;20182;-80
2023/03/26 19:36:59;;;;;;;1.23;1.13;;;7.30;99.90;;;;;;6161924;23;20185;-80
2023/03/26 19:39:37;;;;;;;0.90;0.90;;;7.30;99.90;;;;;;6159560;23;20603;-80
2023/03/26 19:42:05;;;;;;;0.95;0.95;;;7.40;99.90;;;;;;6160529;23;20166;-81
2023/03/26 19:44:38;;;;;;;0.50;0.50;;;7.30;99.90;;;;;;6160576;23;20163;-80
2023/03/26 19:47:26;;;;;;;1.08;0.95;;;7.30;99.90;;;;;;6161164;23;20182;-81
2023/03/26 19:50:26;;;;;;;1.67;1.58;;;7.30;99.90;;;;;;6186665;23;20136;-80
2023/03/26 19:53:10;;;;;;;1.52;1.42;;;7.30;99.90;;;;;;6160265;23;20274;-80
2023/03/26 19:55:38;;;;;;;0.70;0.68;;;7.30;99.90;;;;;;6161254;23;20162;-80
2023/03/26 19:58:04;;;;;;;1.10;1.10;;;7.20;99.90;;;;;;6159546;23;20214;-81
2023/03/26 20:00:30;;;;;;;1.27;0.80;;;7.10;99.90;;;;;;6162131;23;20155;-81
2023/03/26 20:02:57;;;;;;;0.95;0.88;;;7.00;99.90;;;;;;6185320;23;20170;-80
2023/03/26 20:05:32;;;;;;;1.23;1.13;;;7.00;99.90;;;;;;6185628;23;20482;-81
2023/03/26 20:08:15;;;;;;;2.42;1.20;;;7.00;99.90;;;;;;6160714;23;20335;-80
2023/03/26 20:10:42;;;;;;;1.25;1.17;;;7.10;99.90;;;;;;6158416;23;20166;-80
2023/03/26 20:13:16;;;;;;;1.00;1.00;;;7.00;99.90;;;;;;6159899;23;20174;-80
2023/03/26 20:15:52;;;;;;;1.15;1.15;;;7.10;99.90;;;;;;6182598;23;20200;-80
2023/03/26 20:18:19;;;;;;;1.58;1.20;;;6.90;99.90;;;;;;6156218;23;20220;-80
2023/03/26 20:20:44;;;;;;;1.30;1.20;;;7.00;99.90;;;;;;6156603;23;20581;-80
2023/03/26 21:30:41;;;;;;;0.90;0.90;;;6.80;99.90;;;;;;6185746;23;20225;31
2023/03/26 21:33:06;;;;;;;0.50;0.50;;;6.80;99.90;;;;;;6111435;23;20211;-78
2023/03/26 21:35:52;;;;;;;0.30;0.30;;;6.80;99.90;;;;;;6096240;23;20189;-78
2023/03/26 21:38:22;;;;;;;0.28;0.28;;;6.80;99.90;;;;;;6096257;23;20656;-78
2023/03/26 21:44:52;;;;;;;0.25;0.25;;;6.70;99.90;;;;;;6097582;23;20200;-78
2023/03/26 21:47:18;;;;;;;0.22;0.22;;;6.70;99.90;;;;;;6095972;23;20204;-78
2023/03/26 21:50:21;;;;;;;0.20;0.20;;;6.70;99.90;;;;;;6096399;23;20161;-78
2023/03/26 21:52:48;;;;;;;0.65;0.30;;;6.70;99.90;;;;;;6095902;23;20188;-78
2023/03/26 21:55:16;;;;;;;0.20;0.20;;;6.70;99.90;;;;;;6096522;23;20157;-78
2023/03/26 21:57:52;;;;;;;0.28;0.28;;;6.70;99.90;;;;;;6096783;23;20184;-78
2023/03/26 22:00:19;;;;;;;0.30;0.30;;;6.70;99.90;;;;;;6096297;23;20187;-78
2023/03/26 22:02:59;;;;;;;1.17;0.40;;;6.70;99.90;;;;;;6096010;23;20259;-78
2023/03/26 22:06:01;;;;;;;0.40;0.40;;;6.70;99.90;;;;;;6120533;23;20240;-78
2023/03/26 22:08:39;;;;;;;0.30;0.30;;;6.70;99.90;;;;;;6096082;23;20160;-78
2023/03/26 22:11:06;;;;;;;0.63;0.20;;;6.60;99.90;;;;;;6096402;23;20157;-78
2023/03/26 22:13:34;;;;;;;0.35;0.35;;;6.60;99.90;;;;;;6097604;23;20183;-78
2023/03/26 22:16:00;;;;;;;0.30;0.30;;;6.60;99.90;;;;;;6095989;23;20157;-78
2023/03/26 22:18:29;;;;;;;0.20;0.20;;;6.60;99.90;;;;;;6096922;23;20160;-78
2023/03/26 22:20:55;;;;;;;1.45;0.35;;;6.50;99.90;;;;;;6096946;23;20157;-78
2023/03/26 22:23:21;;;;;;;0.32;0.32;;;6.50;99.90;;;;;;6097297;23;20197;-78
2023/03/26 22:25:47;;;;;;;0.50;0.43;;;6.50;99.90;;;;;;6095963;23;20161;-78
2023/03/26 22:28:13;;;;;;;0.40;0.38;;;6.50;99.90;;;;;;6096947;23;20168;-78
2023/03/26 22:30:39;;;;;;;0.30;0.30;;;6.50;99.90;;;;;;6095928;23;20161;-78
2023/03/26 22:33:09;;;;;;;0.20;0.20;;;6.40;99.90;;;;;;6100629;23;20196;-78
2023/03/26 22:35:39;;;;;;;0.57;0.50;;;6.50;99.90;;;;;;6100753;23;20548;-78
2023/03/26 22:38:05;;;;;;;0.60;0.32;;;6.50;99.90;;;;;;6101847;23;20161;-78
2023/03/26 22:40:31;;;;;;;0.55;0.47;;;6.60;99.90;;;;;;6101071;23;20221;-78
2023/03/26 22:42:56;;;;;;;0.50;0.50;;;6.60;99.90;;;;;;6125092;23;20172;-78
2023/03/26 22:45:22;;;;;;;0.40;0.40;;;6.60;99.90;;;;;;6101727;23;20165;-78
2023/03/26 22:47:47;;;;;;;0.47;0.47;;;6.60;99.90;;;;;;6126551;23;20235;-78
2023/03/26 22:50:13;;;;;;;0.35;0.35;;;6.60;99.90;;;;;;6101319;23;20160;-78
2023/03/26 22:52:39;;;;;;;0.38;0.38;;;6.60;99.90;;;;;;6126560;23;20573;-78
2023/03/26 22:55:06;;;;;;;0.95;0.60;;;6.60;99.90;;;;;;6100674;23;20184;-78
2023/03/26 22:57:32;;;;;;;1.17;0.50;;;6.60;99.90;;;;;;6101465;23;20156;-78
2023/03/26 23:00:14;;;;;;;0.47;0.47;;;6.60;99.90;;;;;;6101718;23;20162;-78
2023/03/26 23:02:43;;;;;;;0.30;0.30;;;6.60;99.90;;;;;;6101248;23;20180;-78
2023/03/26 23:05:10;;;;;;;0.43;0.43;;;6.60;99.90;;;;;;6101867;23;20160;-78
2023/03/26 23:07:36;;;;;;;0.55;0.50;;;6.60;99.90;;;;;;6100907;23;20243;-78
2023/03/26 23:10:02;;;;;;;0.40;0.40;;;6.60;99.90;;;;;;6100638;23;20188;-78
2023/03/26 23:12:28;;;;;;;0.38;0.38;;;6.60;99.90;;;;;;6100406;23;20200;-78
2023/03/26 23:14:54;;;;;;;0.20;0.20;;;6.60;99.90;;;;;;6101887;23;20188;-78
2023/03/26 23:17:20;;;;;;;0.40;0.40;;;6.60;99.90;;;;;;6100949;23;20161;-78
2023/03/26 23:19:45;;;;;;;0.28;0.28;;;6.60;99.90;;;;;;6100483;23;20160;-78
2023/03/26 23:22:11;;;;;;;0.47;0.47;;;6.60;99.90;;;;;;6100449;23;20188;-77
2023/03/26 23:24:38;;;;;;;0.20;0.20;;;6.60;99.90;;;;;;6100930;23;20211;-78
2023/03/26 23:27:05;;;;;;;0.30;0.25;;;6.60;99.90;;;;;;6101387;23;20223;-78
2023/03/26 23:29:32;;;;;;;1.00;0.50;;;6.60;99.90;;;;;;6102319;23;20164;-78
2023/03/26 23:31:58;;;;;;;0.40;0.40;;;6.60;99.90;;;;;;6101990;23;20254;-78
2023/03/26 23:34:24;;;;;;;0.20;0.20;;;6.60;99.90;;;;;;6128445;23;20241;-78
2023/03/26 23:36:51;;;;;;;0.50;0.50;;;6.60;99.90;;;;;;6102305;23;20168;-78
2023/03/26 23:39:17;;;;;;;0.95;0.77;;;6.50;99.90;;;;;;6102108;23;20163;-78
2023/03/26 23:41:43;;;;;;;1.50;0.75;;;6.40;99.90;;;;;;6128939;23;20156;-78
2023/03/26 23:44:12;;;;;;;1.00;1.00;;;6.40;99.90;;;;;;6102052;23;20161;-78
2023/03/26 23:46:40;;;;;;;1.23;1.13;;;6.40;99.90;;;;;;6127940;23;20152;-78
2023/03/26 23:49:06;;;;;;;2.88;1.48;;;6.30;99.90;;;;;;6103436;23;20239;-78
2023/03/26 23:51:32;;;;;;;2.63;1.20;;;6.20;99.90;;;;;;6102276;23;20208;-78
2023/03/26 23:53:58;;;;;;;2.20;1.38;;;6.10;99.90;;;;;;6102087;23;20215;-78
2023/03/26 23:56:26;;;;;;;1.40;1.30;;;6.10;99.90;;;;;;6101935;23;20156;-78
2023/03/26 23:58:52;;;;;;;1.25;1.20;;;6.00;99.90;;;;;;6102212;23;20183;-78
